createdAt,value
2023-05-19T00:02:05.894Z,14.20
2023-05-19T00:04:33.593Z,11.88
2023-05-19T00:07:01.317Z,10.95
2023-05-19T00:09:28.335Z,14.00
2023-05-19T00:11:56.630Z,12.45
2023-05-19T00:14:23.461Z,10.38
2023-05-19T00:16:50.357Z,16.38
2023-05-19T00:19:17.688Z,13.88
2023-05-19T00:21:44.395Z,10.27
2023-05-19T00:24:11.010Z,16.15
2023-05-19T00:26:37.954Z,12.98
2023-05-19T00:29:06.615Z,9.80
2023-05-19T00:31:34.135Z,11.30
2023-05-19T00:34:01.041Z,13.63
2023-05-19T00:36:27.693Z,13.13
2023-05-19T00:38:58.205Z,11.18
2023-05-19T00:41:24.892Z,15.13
2023-05-19T00:43:51.540Z,10.75
2023-05-19T00:46:19.475Z,12.50
2023-05-19T00:48:46.219Z,13.50
2023-05-19T00:51:16.770Z,13.77
2023-05-19T00:53:48.959Z,13.68
2023-05-19T00:56:16.679Z,15.32
2023-05-19T00:58:44.222Z,15.02
2023-05-19T01:01:12.082Z,11.00
2023-05-19T01:03:40.806Z,10.30
2023-05-19T01:06:07.832Z,13.95
2023-05-19T01:08:37.194Z,10.20
2023-05-19T01:11:05.493Z,15.45
2023-05-19T01:13:32.875Z,21.17
2023-05-19T01:16:10.104Z,19.52
2023-05-19T01:18:58.242Z,19.25
2023-05-19T01:21:36.341Z,17.52
2023-05-19T01:24:23.074Z,14.70
2023-05-19T01:27:12.303Z,15.50
2023-05-19T01:29:54.877Z,13.00
2023-05-19T01:34:49.746Z,15.63
2023-05-19T01:37:17.720Z,11.40
2023-05-19T01:39:46.440Z,10.25
2023-05-19T01:42:15.142Z,13.32
2023-05-19T01:44:42.257Z,10.20
2023-05-19T01:47:09.833Z,10.90
2023-05-19T01:49:36.468Z,12.85
2023-05-19T01:52:04.056Z,12.55
2023-05-19T01:54:30.593Z,8.95
2023-05-19T01:57:25.072Z,13.20
2023-05-19T02:00:05.678Z,9.95
2023-05-19T02:02:54.387Z,12.02
2023-05-19T02:05:38.344Z,10.52
2023-05-19T02:10:37.286Z,11.73
2023-05-19T02:13:06.780Z,11.63
2023-05-19T02:15:42.211Z,12.57
2023-05-19T02:18:12.521Z,12.98
2023-05-19T02:20:39.992Z,14.48
2023-05-19T02:23:07.106Z,12.32
2023-05-19T02:25:33.889Z,20.45
2023-05-19T02:28:00.552Z,14.68
2023-05-19T02:30:32.623Z,15.63
2023-05-19T02:33:00.400Z,17.92
2023-05-19T02:35:27.897Z,16.67
2023-05-19T02:37:54.543Z,13.77
2023-05-19T02:40:21.888Z,12.32
2023-05-19T02:42:49.426Z,11.50
2023-05-19T02:45:16.271Z,12.52
2023-05-19T02:47:43.006Z,9.02
2023-05-19T02:50:09.666Z,11.88
2023-05-19T02:52:36.354Z,18.73
2023-05-19T02:55:02.956Z,13.85
2023-05-19T02:57:31.513Z,12.25
2023-05-19T02:59:58.152Z,12.70
2023-05-19T03:02:24.813Z,10.10
2023-05-19T03:04:51.573Z,11.45
2023-05-19T03:07:18.233Z,10.77
2023-05-19T03:09:44.744Z,10.88
2023-05-19T03:12:11.329Z,13.80
2023-05-19T03:14:38.745Z,22.50
2023-05-19T03:17:08.002Z,16.60
2023-05-19T03:19:34.754Z,12.38
2023-05-19T03:22:01.369Z,13.88
2023-05-19T03:24:28.342Z,16.42
2023-05-19T03:26:55.764Z,15.57
2023-05-19T03:29:22.516Z,13.23
2023-05-19T03:31:49.315Z,13.88
2023-05-19T03:34:16.629Z,11.20
2023-05-19T03:36:44.995Z,15.45
2023-05-19T03:41:42.397Z,19.15
2023-05-19T03:44:09.011Z,18.90
2023-05-19T03:46:35.770Z,16.98
2023-05-19T03:49:22.660Z,15.88
2023-05-19T03:52:27.952Z,15.13
2023-05-19T03:55:11.727Z,16.92
2023-05-19T03:57:39.457Z,13.38
2023-05-19T04:00:07.025Z,17.92
2023-05-19T04:02:38.922Z,17.35
2023-05-19T04:05:08.503Z,36.80
2023-05-19T04:07:36.971Z,16.10
2023-05-19T04:10:05.393Z,20.25
2023-05-19T04:12:32.969Z,16.60
2023-05-19T04:15:00.196Z,30.92
2023-05-19T04:17:27.519Z,13.65
2023-05-19T04:19:55.213Z,22.50
2023-05-19T04:22:22.466Z,20.45
2023-05-19T04:24:50.544Z,20.77
2023-05-19T04:27:18.210Z,17.45
2023-05-19T04:29:46.058Z,20.23
2023-05-19T04:32:17.611Z,18.80
2023-05-19T04:34:47.228Z,15.98
2023-05-19T04:37:20.406Z,27.85
2023-05-19T04:39:48.224Z,26.73
2023-05-19T04:42:19.146Z,19.67
2023-05-19T04:44:46.444Z,20.73
2023-05-19T04:47:14.897Z,19.88
2023-05-19T04:49:42.055Z,20.25
2023-05-19T04:52:13.039Z,25.23
2023-05-19T04:54:41.739Z,18.70
2023-05-19T04:57:10.481Z,25.30
2023-05-19T04:59:39.490Z,22.95
2023-05-19T05:02:07.926Z,28.27
2023-05-19T05:04:36.729Z,23.88
2023-05-19T05:07:03.317Z,19.20
2023-05-19T05:09:29.930Z,21.08
2023-05-19T05:13:52.816Z,21.40
2023-05-19T05:16:19.770Z,24.15
2023-05-19T05:18:46.949Z,21.83
2023-05-19T05:21:14.430Z,26.30
2023-05-19T05:23:41.300Z,17.50
2023-05-19T05:26:16.823Z,29.67
2023-05-19T05:28:44.496Z,20.73
2023-05-19T05:31:11.448Z,28.15
2023-05-19T05:33:39.449Z,20.70
2023-05-19T05:36:06.656Z,21.02
2023-05-19T05:38:34.052Z,25.35
2023-05-19T05:41:02.613Z,23.23
2023-05-19T05:43:29.995Z,20.88
2023-05-19T05:46:00.730Z,28.27
2023-05-19T05:48:27.861Z,23.67
2023-05-19T05:50:56.900Z,19.55
2023-05-19T05:53:32.161Z,21.55
2023-05-19T05:56:01.068Z,23.90
2023-05-19T05:58:37.728Z,26.00
2023-05-19T06:01:05.430Z,19.50
2023-05-19T06:03:33.528Z,16.10
2023-05-19T06:06:05.415Z,24.65
2023-05-19T06:08:32.165Z,24.35
2023-05-19T06:10:58.923Z,21.90
2023-05-19T06:13:26.694Z,21.83
2023-05-19T06:15:53.477Z,26.08
2023-05-19T06:18:24.957Z,19.00
2023-05-19T06:20:52.696Z,18.15
2023-05-19T06:23:19.276Z,19.13
2023-05-19T06:25:46.105Z,23.70
2023-05-19T06:28:13.642Z,22.65
2023-05-19T06:30:40.393Z,19.35
2023-05-19T06:33:29.102Z,22.70
2023-05-19T06:35:56.717Z,25.48
2023-05-19T06:38:23.347Z,25.75
2023-05-19T06:40:50.470Z,28.58
2023-05-19T06:43:17.079Z,27.98
2023-05-19T06:45:55.121Z,24.48
2023-05-19T06:48:24.314Z,30.30
2023-05-19T06:50:50.927Z,30.05
2023-05-19T06:53:19.877Z,24.10
2023-05-19T06:55:58.068Z,25.85
2023-05-19T06:58:28.283Z,25.83
2023-05-19T07:00:55.797Z,29.25
2023-05-19T07:03:26.048Z,29.83
2023-05-19T07:05:54.317Z,33.28
2023-05-19T07:08:20.896Z,28.10
2023-05-19T07:10:47.789Z,28.13
2023-05-19T07:13:15.794Z,21.75
2023-05-19T07:15:42.588Z,25.58
2023-05-19T07:18:12.198Z,23.65
2023-05-19T07:20:38.887Z,26.67
2023-05-19T07:23:05.412Z,23.45
2023-05-19T07:25:33.218Z,21.13
2023-05-19T07:28:00.122Z,22.08
2023-05-19T07:30:31.686Z,22.52
2023-05-19T07:32:58.504Z,25.27
2023-05-19T07:35:26.213Z,24.02
2023-05-19T07:37:52.981Z,21.13
2023-05-19T07:40:19.728Z,24.42
2023-05-19T07:42:46.390Z,27.45
2023-05-19T07:45:12.965Z,20.30
2023-05-19T07:47:39.579Z,34.80
2023-05-19T07:50:06.847Z,22.33
2023-05-19T07:52:33.461Z,24.95
2023-05-19T07:55:00.031Z,24.80
2023-05-19T07:57:26.684Z,28.48
2023-05-19T07:59:53.238Z,22.85
2023-05-19T08:02:19.884Z,28.85
2023-05-19T08:04:46.526Z,24.98
2023-05-19T08:07:13.186Z,22.20
2023-05-19T08:09:39.710Z,31.40
2023-05-19T08:12:06.404Z,26.20
2023-05-19T08:14:34.765Z,29.15
2023-05-19T08:17:01.370Z,26.73
2023-05-19T08:19:27.971Z,30.95
2023-05-19T08:21:55.713Z,38.22
2023-05-19T08:24:22.221Z,22.20
2023-05-19T08:26:51.790Z,23.23
2023-05-19T08:29:18.362Z,28.55
2023-05-19T08:31:44.992Z,26.90
2023-05-19T08:34:11.809Z,29.58
2023-05-19T08:36:38.956Z,26.73
2023-05-19T08:39:05.846Z,23.42
2023-05-19T08:41:32.840Z,19.35
2023-05-19T08:43:59.560Z,22.25
2023-05-19T08:46:26.915Z,22.20
2023-05-19T08:48:58.777Z,19.63
2023-05-19T08:52:02.335Z,18.08
2023-05-19T08:54:38.208Z,18.70
2023-05-19T08:57:05.726Z,21.80
2023-05-19T08:59:32.612Z,22.58
2023-05-19T09:01:59.712Z,24.95
2023-05-19T09:04:29.978Z,25.90
2023-05-19T09:06:56.920Z,25.42
2023-05-19T09:09:23.493Z,27.38
2023-05-19T09:14:11.420Z,26.48
2023-05-19T09:16:38.987Z,28.05
2023-05-19T09:19:07.234Z,27.42
2023-05-19T09:21:33.925Z,35.55
2023-05-19T09:24:07.953Z,23.45
2023-05-19T09:26:39.176Z,27.42
2023-05-19T09:29:16.979Z,27.08
2023-05-19T09:31:50.614Z,26.48
2023-05-19T09:34:18.904Z,30.17
2023-05-19T09:36:49.599Z,28.67
2023-05-19T09:39:17.795Z,27.98
2023-05-19T09:41:45.438Z,21.38
2023-05-19T09:44:21.166Z,22.30
2023-05-19T09:46:52.752Z,24.63
2023-05-19T09:49:31.225Z,23.70
2023-05-19T09:51:59.659Z,24.58
2023-05-19T09:54:31.175Z,19.13
2023-05-19T09:57:01.399Z,24.17
2023-05-19T09:59:32.120Z,21.10
2023-05-19T10:02:00.650Z,20.75
2023-05-19T10:04:29.359Z,29.33
2023-05-19T10:06:59.610Z,20.25
2023-05-19T10:09:29.160Z,24.48
2023-05-19T10:11:57.961Z,28.88
2023-05-19T10:14:26.931Z,26.48
2023-05-19T10:16:55.577Z,24.08
2023-05-19T10:19:24.247Z,24.80
2023-05-19T10:21:51.731Z,25.70
2023-05-19T10:24:19.224Z,25.30
2023-05-19T10:26:51.219Z,28.25
2023-05-19T10:29:25.490Z,26.45
2023-05-19T10:31:54.162Z,30.13
2023-05-19T10:35:15.659Z,26.05
2023-05-19T10:38:27.191Z,32.58
2023-05-19T10:41:11.646Z,25.65
2023-05-19T10:43:41.203Z,27.95
2023-05-19T10:46:07.737Z,23.83
2023-05-19T10:48:37.797Z,24.48
2023-05-19T10:51:05.186Z,20.95
2023-05-19T10:53:32.849Z,22.55
2023-05-19T10:56:04.894Z,25.23
2023-05-19T11:01:14.419Z,29.20
2023-05-19T11:03:48.127Z,25.50
2023-05-19T11:06:18.844Z,27.95
2023-05-19T11:08:45.423Z,21.60
2023-05-19T11:11:14.270Z,25.83
2023-05-19T11:13:46.832Z,28.63
2023-05-19T11:16:14.068Z,25.05
2023-05-19T11:18:40.963Z,29.13
2023-05-19T11:21:07.695Z,28.77
2023-05-19T11:23:38.708Z,25.08
2023-05-19T11:26:07.990Z,25.80
2023-05-19T11:28:35.266Z,29.55
2023-05-19T11:31:02.526Z,30.67
2023-05-19T11:33:32.483Z,23.23
2023-05-19T11:35:59.297Z,24.35
2023-05-19T11:38:28.141Z,27.98
2023-05-19T11:40:57.522Z,25.45
2023-05-19T11:43:25.224Z,31.67
2023-05-19T11:45:53.344Z,28.77
2023-05-19T11:48:23.719Z,27.77
2023-05-19T11:50:51.017Z,25.33
2023-05-19T11:53:22.280Z,34.55
2023-05-19T11:55:52.031Z,30.67
2023-05-19T11:58:26.755Z,24.48
2023-05-19T12:00:54.154Z,29.02
2023-05-19T12:03:28.109Z,24.77
2023-05-19T12:05:59.138Z,26.10
2023-05-19T12:08:27.186Z,23.52
2023-05-19T12:10:54.088Z,22.05
2023-05-19T12:13:22.788Z,32.55
2023-05-19T12:15:52.218Z,30.20
2023-05-19T12:18:19.322Z,34.17
2023-05-19T12:20:46.354Z,29.63
2023-05-19T12:23:14.371Z,31.40
2023-05-19T12:25:41.152Z,30.85
2023-05-19T12:28:09.802Z,32.08
2023-05-19T12:30:36.867Z,31.05
2023-05-19T12:33:03.869Z,34.63
2023-05-19T12:35:35.984Z,31.98
2023-05-19T12:38:04.635Z,25.50
2023-05-19T12:40:31.800Z,34.60
2023-05-19T12:42:59.308Z,33.25
2023-05-19T12:45:28.122Z,33.10
2023-05-19T12:47:55.010Z,37.17
2023-05-19T12:50:21.674Z,31.77
2023-05-19T12:52:51.799Z,33.97
2023-05-19T12:55:20.544Z,40.42
2023-05-19T12:57:54.663Z,42.22
2023-05-19T13:00:25.791Z,41.03
2023-05-19T13:02:56.329Z,33.50
2023-05-19T13:05:24.863Z,46.78
2023-05-19T13:07:54.511Z,49.25
2023-05-19T13:10:21.353Z,34.05
2023-05-19T13:12:49.846Z,37.15
2023-05-19T13:15:16.557Z,39.35
2023-05-19T13:17:46.478Z,39.00
2023-05-19T13:20:13.446Z,39.53
2023-05-19T13:22:40.337Z,40.88
2023-05-19T13:25:07.604Z,39.45
2023-05-19T13:27:35.289Z,41.88
2023-05-19T13:30:02.478Z,39.83
2023-05-19T13:32:31.936Z,41.75
2023-05-19T13:34:59.228Z,41.03
2023-05-19T13:37:25.871Z,44.47
2023-05-19T13:39:52.678Z,43.42
2023-05-19T13:42:19.435Z,42.10
2023-05-19T13:44:46.690Z,42.30
2023-05-19T13:47:13.556Z,38.15
2023-05-19T13:49:41.324Z,42.22
2023-05-19T13:52:10.278Z,38.63
2023-05-19T13:54:37.147Z,41.50
2023-05-19T13:57:03.880Z,42.70
2023-05-19T13:59:30.851Z,36.78
2023-05-19T14:01:57.736Z,40.38
2023-05-19T14:04:24.473Z,34.67
2023-05-19T14:06:51.140Z,39.72
2023-05-19T14:09:17.809Z,40.50
2023-05-19T14:11:44.426Z,42.75
2023-05-19T14:14:11.591Z,38.28
2023-05-19T14:16:38.805Z,37.42
2023-05-19T14:19:05.665Z,36.47
2023-05-19T14:21:32.658Z,35.20
2023-05-19T14:23:59.559Z,40.83
2023-05-19T14:26:27.523Z,41.33
2023-05-19T14:28:57.026Z,39.40
2023-05-19T14:31:24.226Z,39.47
2023-05-19T14:33:51.444Z,39.25
2023-05-19T14:36:21.053Z,41.50
2023-05-19T14:38:50.037Z,44.15
2023-05-19T14:41:16.625Z,35.53
2023-05-19T14:43:43.275Z,41.58
2023-05-19T14:46:09.980Z,38.72
2023-05-19T14:48:36.656Z,42.53
2023-05-19T14:51:03.313Z,39.53
2023-05-19T14:53:30.079Z,44.47
2023-05-19T14:55:56.635Z,39.30
2023-05-19T14:58:28.712Z,44.78
2023-05-19T15:03:08.204Z,49.13
2023-05-19T15:05:35.102Z,43.08
2023-05-19T15:08:02.043Z,45.35
2023-05-19T15:10:31.909Z,44.65
2023-05-19T15:13:00.249Z,42.95
2023-05-19T15:15:27.199Z,49.88
2023-05-19T15:17:53.853Z,45.67
2023-05-19T15:20:20.483Z,51.17
2023-05-19T15:22:46.992Z,53.28
2023-05-19T15:25:13.596Z,49.75
2023-05-19T15:27:40.113Z,48.75
2023-05-19T15:30:07.177Z,50.05
2023-05-19T15:32:33.878Z,50.47
2023-05-19T15:35:00.685Z,53.33
2023-05-19T15:37:27.550Z,42.72
2023-05-19T15:39:59.281Z,52.03
2023-05-19T15:42:26.276Z,46.00
2023-05-19T15:44:52.807Z,47.30
2023-05-19T15:47:19.485Z,49.47
2023-05-19T15:49:46.061Z,51.83
2023-05-19T15:52:12.687Z,53.45
2023-05-19T15:54:39.237Z,55.35
2023-05-19T15:57:05.970Z,58.05
2023-05-19T15:59:32.519Z,62.22
2023-05-19T16:01:59.254Z,53.65
2023-05-19T16:04:25.873Z,52.75
2023-05-19T16:06:52.484Z,55.25
2023-05-19T16:09:19.243Z,56.85
2023-05-19T16:11:45.814Z,54.47
2023-05-19T16:14:12.470Z,55.42
2023-05-19T16:16:39.141Z,50.72
2023-05-19T16:19:05.952Z,53.38
2023-05-19T16:21:32.628Z,54.35
2023-05-19T16:23:59.258Z,49.58
2023-05-19T16:26:26.316Z,54.33
2023-05-19T16:28:52.868Z,51.25
2023-05-19T16:31:19.539Z,55.92
2023-05-19T16:33:46.281Z,63.55
2023-05-19T16:36:12.948Z,58.53
2023-05-19T16:38:39.523Z,55.58
2023-05-19T16:41:10.799Z,50.53
2023-05-19T16:43:37.547Z,49.05
2023-05-19T16:46:05.226Z,50.65
2023-05-19T16:48:31.931Z,55.10
2023-05-19T16:50:59.298Z,67.65
2023-05-19T16:53:26.018Z,56.95
2023-05-19T16:55:52.586Z,56.40
2023-05-19T16:58:19.291Z,54.58
2023-05-19T17:00:45.932Z,51.72
2023-05-19T17:03:12.850Z,53.47
2023-05-19T17:05:41.898Z,52.80
2023-05-19T17:08:08.984Z,73.30
2023-05-19T17:10:36.004Z,64.45
2023-05-19T17:13:02.762Z,67.63
2023-05-19T17:15:33.890Z,63.70
2023-05-19T17:18:00.801Z,78.13
2023-05-19T17:20:27.439Z,79.47
2023-05-19T17:25:12.324Z,65.03
2023-05-19T17:27:39.224Z,76.72
2023-05-19T17:30:07.005Z,72.53
2023-05-19T17:32:38.628Z,73.28
2023-05-19T17:35:06.707Z,64.70
2023-05-19T17:37:33.385Z,65.78
2023-05-19T17:40:00.143Z,60.97
2023-05-19T17:42:27.298Z,61.20
2023-05-19T17:44:54.147Z,57.22
2023-05-19T17:47:20.990Z,43.85
2023-05-19T17:49:47.903Z,39.85
2023-05-19T17:52:16.650Z,43.53
2023-05-19T17:54:43.510Z,45.15
2023-05-19T17:59:24.170Z,47.85
2023-05-19T18:01:51.314Z,45.00
2023-05-19T18:04:18.596Z,56.45
2023-05-19T18:06:48.169Z,50.20
2023-05-19T18:09:16.914Z,48.75
2023-05-19T18:11:43.962Z,56.80
2023-05-19T18:14:10.779Z,50.05
2023-05-19T18:16:37.888Z,60.33
2023-05-19T18:19:04.526Z,60.05
2023-05-19T18:21:31.353Z,66.65
2023-05-19T18:23:57.989Z,76.82
2023-05-19T18:26:24.576Z,87.35
2023-05-19T18:28:51.097Z,63.00
2023-05-19T18:31:19.883Z,70.00
2023-05-19T18:33:47.156Z,68.10
2023-05-19T18:36:16.294Z,59.35
2023-05-19T18:38:42.892Z,72.85
2023-05-19T18:41:12.500Z,67.25
2023-05-19T18:43:39.113Z,64.70
2023-05-19T18:46:06.262Z,61.42
2023-05-19T18:48:36.060Z,63.60
2023-05-19T18:51:03.754Z,67.65
2023-05-19T18:53:34.801Z,63.20
2023-05-19T18:56:02.936Z,70.70
2023-05-19T18:58:32.592Z,66.45
2023-05-19T19:01:02.083Z,66.47
2023-05-19T19:03:29.670Z,63.17
2023-05-19T19:05:59.721Z,56.58
2023-05-19T19:08:26.514Z,59.90
2023-05-19T19:10:54.648Z,56.97
2023-05-19T19:13:22.456Z,56.88
2023-05-19T19:15:49.058Z,57.05
2023-05-19T19:18:15.871Z,47.25
2023-05-19T19:20:42.901Z,52.22
2023-05-19T19:23:09.610Z,46.50
2023-05-19T19:25:36.412Z,50.42
2023-05-19T19:28:03.628Z,48.20
2023-05-19T19:30:30.300Z,53.97
2023-05-19T19:32:57.111Z,52.92
2023-05-19T19:35:23.713Z,51.78
2023-05-19T19:37:51.694Z,61.35
2023-05-19T19:40:18.214Z,56.22
2023-05-19T19:42:44.824Z,58.08
2023-05-19T19:45:13.949Z,62.63
2023-05-19T19:47:42.255Z,65.07
2023-05-19T19:50:12.302Z,59.88
2023-05-19T19:52:39.838Z,63.08
2023-05-19T19:55:06.923Z,60.42
2023-05-19T19:57:34.198Z,72.65
2023-05-19T20:00:07.818Z,56.85
2023-05-19T20:02:41.052Z,62.05
2023-05-19T20:05:12.865Z,64.88
2023-05-19T20:07:39.480Z,66.38
2023-05-19T20:10:06.636Z,69.07
2023-05-19T20:12:33.192Z,59.17
2023-05-19T20:14:59.796Z,58.42
2023-05-19T20:17:26.390Z,62.47
2023-05-19T20:19:53.084Z,70.68
2023-05-19T20:22:19.617Z,67.53
2023-05-19T20:24:46.552Z,66.97
2023-05-19T20:27:13.217Z,68.25
2023-05-19T20:29:39.927Z,69.97
2023-05-19T20:32:06.807Z,62.05
2023-05-19T20:34:33.571Z,67.32
2023-05-19T20:37:00.539Z,55.00
2023-05-19T20:39:27.162Z,51.08
2023-05-19T20:41:53.740Z,53.83
2023-05-19T20:44:20.616Z,57.50
2023-05-19T20:46:47.385Z,53.80
2023-05-19T20:49:14.025Z,59.40
2023-05-19T20:51:40.629Z,65.20
2023-05-19T20:54:07.328Z,67.22
2023-05-19T20:56:34.216Z,61.00
2023-05-19T20:59:00.901Z,57.83
2023-05-19T21:01:29.699Z,68.20
2023-05-19T21:03:56.473Z,53.03
2023-05-19T21:06:23.074Z,63.13
2023-05-19T21:08:50.215Z,64.63
2023-05-19T21:11:16.816Z,70.72
2023-05-19T21:13:44.133Z,66.97
2023-05-19T21:16:10.679Z,62.70
2023-05-19T21:18:40.018Z,71.43
2023-05-19T21:21:06.637Z,70.13
2023-05-19T21:23:33.229Z,71.20
2023-05-19T21:26:00.271Z,70.50
2023-05-19T21:28:26.903Z,70.32
2023-05-19T21:30:53.609Z,71.70
2023-05-19T21:33:20.688Z,72.78
2023-05-19T21:35:47.336Z,79.35
2023-05-19T21:38:24.029Z,69.43
2023-05-19T21:40:51.914Z,79.00
2023-05-19T21:43:19.406Z,81.85
2023-05-19T21:45:46.035Z,73.38
2023-05-19T21:48:13.169Z,75.32
2023-05-19T21:50:39.845Z,77.45
2023-05-19T21:53:06.554Z,62.17
2023-05-19T21:55:33.405Z,72.90
2023-05-19T21:58:01.695Z,61.97
2023-05-19T22:00:32.464Z,62.88
2023-05-19T22:02:59.313Z,62.78
2023-05-19T22:05:26.502Z,69.43
2023-05-19T22:07:53.109Z,68.35
2023-05-19T22:10:19.762Z,68.80
2023-05-19T22:12:46.351Z,72.60
2023-05-19T22:15:15.959Z,83.80
2023-05-19T22:17:42.704Z,68.80
2023-05-19T22:20:09.720Z,73.40
2023-05-19T22:22:36.592Z,74.55
2023-05-19T22:25:03.622Z,81.20
2023-05-19T22:27:30.658Z,81.68
2023-05-19T22:29:57.378Z,79.25
2023-05-19T22:32:24.201Z,80.18
2023-05-19T22:34:51.103Z,72.78
2023-05-19T22:37:17.781Z,73.70
2023-05-19T22:39:44.533Z,69.78
2023-05-19T22:42:11.164Z,75.60
2023-05-19T22:44:37.771Z,69.68
2023-05-19T22:47:13.272Z,72.90
2023-05-19T22:49:40.842Z,74.50
2023-05-19T22:52:10.409Z,67.88
2023-05-19T22:54:38.170Z,64.45
2023-05-19T22:57:05.105Z,73.57
2023-05-19T22:59:31.770Z,75.32
2023-05-19T23:01:58.336Z,68.95
2023-05-19T23:04:25.003Z,62.80
2023-05-19T23:06:51.730Z,64.22
2023-05-19T23:09:18.621Z,59.05
2023-05-19T23:11:46.000Z,63.08
2023-05-19T23:14:12.600Z,58.00
2023-05-19T23:16:39.212Z,62.35
2023-05-19T23:19:06.065Z,63.25
2023-05-19T23:21:32.800Z,64.82
2023-05-19T23:23:59.975Z,63.08
2023-05-19T23:26:27.000Z,62.65
2023-05-19T23:28:53.674Z,62.53
2023-05-19T23:31:20.357Z,64.55
2023-05-19T23:33:47.027Z,66.78
2023-05-19T23:36:13.688Z,64.07
2023-05-19T23:38:40.326Z,63.92
2023-05-19T23:41:06.972Z,60.80
2023-05-19T23:43:33.722Z,73.05
2023-05-19T23:46:00.977Z,68.72
2023-05-19T23:48:31.247Z,60.35
2023-05-19T23:50:58.613Z,62.45
2023-05-19T23:53:25.612Z,66.22
2023-05-19T23:55:52.386Z,55.30
2023-05-19T23:58:19.020Z,58.80
